Time;durP1;ratioP1;P1;durP2;ratioP2;P2;SDS_P1;SDS_P2;PMS_P1;PMS_P2;Temp;Humidity;BMP_temperature;BMP_pressure;BME280_temperature;BME280_humidity;BME280_pressure;Samples;Min_cycle;Max_cycle;Signal;HPM_P1;HPM_P2
2023/06/25 00:00:44;;;;;;;10.75;8.40;;;;;;;23.67;59.69;101799.06;4987950;28;101497;-65
2023/06/25 00:03:10;;;;;;;17.80;8.73;;;;;;;23.47;60.83;101799.63;4990919;28;99044;-65
2023/06/25 00:05:36;;;;;;;13.57;9.00;;;;;;;23.45;60.63;101799.75;4986556;28;97102;-64
2023/06/25 00:08:05;;;;;;;12.63;8.50;;;;;;;23.32;61.21;101799.78;4992725;28;96876;-65
2023/06/25 00:10:31;;;;;;;13.52;8.27;;;;;;;23.40;61.23;101791.13;4990204;28;99351;-66
2023/06/25 00:12:57;;;;;;;14.55;8.82;;;;;;;23.37;61.35;101805.69;4994501;28;97577;-66
2023/06/25 00:15:24;;;;;;;15.85;8.98;;;;;;;23.53;60.99;101796.53;4993112;28;96758;-66
2023/06/25 00:17:50;;;;;;;12.98;7.82;;;;;;;23.55;60.86;101805.38;4990092;28;99040;-65
2023/06/25 00:20:17;;;;;;;12.68;7.90;;;;;;;23.64;60.27;101800.16;4992004;28;98876;-65
2023/06/25 00:22:43;;;;;;;11.35;7.90;;;;;;;23.54;60.60;101796.41;4990890;28;99391;-65
2023/06/25 00:25:15;;;;;;;11.85;7.80;;;;;;;23.64;60.77;101799.28;4992646;28;98645;-66
2023/06/25 00:27:46;;;;;;;9.60;7.60;;;;;;;23.67;60.40;101791.84;4994067;28;96805;-66
2023/06/25 00:30:14;;;;;;;10.40;7.85;;;;;;;23.67;60.22;101788.28;4992580;28;99174;-66
2023/06/25 00:32:40;;;;;;;12.70;8.05;;;;;;;23.65;60.45;101793.78;4990245;28;98834;-66
2023/06/25 00:35:07;;;;;;;10.68;8.43;;;;;;;23.68;60.09;101787.31;4992463;28;96879;-66
2023/06/25 00:37:36;;;;;;;11.25;7.80;;;;;;;23.80;60.22;101789.09;4990858;28;97009;-65
2023/06/25 00:40:04;;;;;;;11.52;7.78;;;;;;;23.65;60.35;101784.81;4994266;28;98183;-70
2023/06/25 00:42:41;;;;;;;11.50;7.68;;;;;;;23.80;59.79;101783.69;4993268;28;98099;-71
2023/06/25 00:45:09;;;;;;;14.52;7.95;;;;;;;23.86;59.77;101785.94;4992458;28;98648;-66
2023/06/25 00:47:35;;;;;;;8.75;7.13;;;;;;;23.86;59.53;101788.63;4994063;28;97263;-65
2023/06/25 00:50:02;;;;;;;13.30;7.85;;;;;;;23.99;59.13;101786.72;4989890;28;99132;-66
2023/06/25 00:52:30;;;;;;;9.95;7.13;;;;;;;24.20;58.36;101786.97;4990307;28;98826;-67
2023/06/25 00:54:56;;;;;;;10.98;7.55;;;;;;;24.12;58.67;101784.84;4990324;28;97883;-66
2023/06/25 00:57:27;;;;;;;9.95;7.47;;;;;;;24.04;58.65;101776.44;4992272;28;96917;-67
2023/06/25 00:59:56;;;;;;;10.93;6.97;;;;;;;24.07;58.85;101781.63;4988925;28;99148;-66
2023/06/25 01:02:26;;;;;;;9.07;7.18;;;;;;;24.04;58.79;101783.69;4991421;28;97593;-66
2023/06/25 01:04:58;;;;;;;13.15;7.75;;;;;;;24.09;58.64;101782.34;4989281;28;98467;-65
2023/06/25 01:07:25;;;;;;;10.98;8.15;;;;;;;24.12;58.95;101789.38;4989396;28;98751;-66
2023/06/25 01:09:54;;;;;;;12.63;8.20;;;;;;;24.21;58.05;101784.19;4987955;28;99257;-65
2023/06/25 01:12:20;;;;;;;11.88;7.55;;;;;;;24.28;58.01;101786.41;4998620;28;98992;-65
2023/06/25 01:14:49;;;;;;;9.38;7.68;;;;;;;24.25;57.78;101783.94;4992629;28;97130;-66
2023/06/25 01:17:16;;;;;;;11.18;7.70;;;;;;;24.20;58.10;101782.44;4989026;28;98708;-66
2023/06/25 01:19:43;;;;;;;10.95;7.85;;;;;;;24.26;57.88;101774.84;4989213;28;100543;-64
2023/06/25 01:22:11;;;;;;;11.48;7.88;;;;;;;24.34;57.76;101777.81;4987684;28;98939;-66
2023/06/25 01:24:42;;;;;;;11.73;7.85;;;;;;;24.30;58.29;101779.88;4991159;28;97062;-65
2023/06/25 01:27:08;;;;;;;11.07;8.02;;;;;;;24.32;58.61;101772.53;4990241;28;98757;-65
2023/06/25 01:29:35;;;;;;;13.50;8.20;;;;;;;24.31;59.20;101768.09;4989049;28;97401;-66
2023/06/25 01:32:01;;;;;;;10.43;7.90;;;;;;;24.18;59.30;101775.41;4989976;28;99096;-66
2023/06/25 01:34:27;;;;;;;10.13;7.82;;;;;;;24.19;59.80;101766.34;4989848;28;96834;-65
2023/06/25 01:36:54;;;;;;;10.20;7.53;;;;;;;24.21;59.58;101767.97;4993404;28;96927;-66
2023/06/25 01:39:22;;;;;;;13.05;8.00;;;;;;;24.22;60.08;101766.97;4991836;28;99153;-66
2023/06/25 01:41:49;;;;;;;11.90;8.02;;;;;;;24.36;59.37;101765.03;4990264;28;102086;-67
2023/06/25 01:44:20;;;;;;;10.80;7.47;;;;;;;24.41;58.24;101763.72;4990297;28;97752;-67
2023/06/25 01:46:46;;;;;;;12.52;8.57;;;;;;;24.55;58.04;101765.34;4990321;28;99295;-66
2023/06/25 01:49:13;;;;;;;12.00;8.38;;;;;;;24.50;57.55;101767.53;4988277;28;99733;-64
2023/06/25 01:51:39;;;;;;;10.88;8.23;;;;;;;24.50;57.29;101757.59;4987319;28;98903;-66
2023/06/25 01:54:05;;;;;;;13.15;8.20;;;;;;;24.50;56.64;101754.03;4989980;28;97623;-65
2023/06/25 01:56:32;;;;;;;10.48;7.55;;;;;;;24.56;56.60;101748.16;4987989;28;97696;-66
2023/06/25 01:58:59;;;;;;;11.02;7.93;;;;;;;24.46;55.50;101747.16;4989330;28;98987;-66
2023/06/25 02:01:26;;;;;;;14.25;8.63;;;;;;;24.55;55.72;101749.13;4987434;28;98145;-66
2023/06/25 02:03:52;;;;;;;14.05;7.88;;;;;;;24.48;56.13;101750.63;4990265;28;98995;-66
2023/06/25 02:06:18;;;;;;;12.02;7.35;;;;;;;24.39;56.67;101749.47;4990112;28;97008;-65
2023/06/25 02:08:45;;;;;;;10.38;7.57;;;;;;;24.64;56.20;101745.72;4989117;28;99227;-65
2023/06/25 02:11:11;;;;;;;11.55;7.85;;;;;;;24.75;55.68;101744.84;4988172;28;97658;-65
2023/06/25 02:13:38;;;;;;;10.95;7.28;;;;;;;24.49;55.91;101746.91;4989861;28;98593;-65
2023/06/25 02:16:05;;;;;;;10.88;7.90;;;;;;;24.34;57.14;101746.28;4985587;28;97957;-66
2023/06/25 02:18:33;;;;;;;10.57;7.45;;;;;;;24.63;55.83;101742.13;4987799;28;99030;-65
2023/06/25 02:20:59;;;;;;;11.45;7.93;;;;;;;24.57;55.20;101737.22;4986325;28;97582;-65
2023/06/25 02:23:25;;;;;;;10.43;7.60;;;;;;;24.80;54.55;101743.53;4990975;28;98773;-65
2023/06/25 02:25:52;;;;;;;10.23;7.15;;;;;;;24.81;53.81;101749.78;4988324;28;97378;-65
2023/06/25 02:28:19;;;;;;;11.65;7.85;;;;;;;24.75;53.50;101740.31;4989138;28;99017;-66
2023/06/25 02:30:45;;;;;;;10.60;7.82;;;;;;;24.70;53.19;101744.34;4986154;28;100624;-65
2023/06/25 02:33:13;;;;;;;11.20;7.70;;;;;;;24.85;53.45;101751.25;4992154;28;98810;-65
2023/06/25 02:35:40;;;;;;;13.82;8.70;;;;;;;24.91;53.09;101745.41;4991355;28;98353;-65
2023/06/25 02:38:07;;;;;;;13.23;7.75;;;;;;;24.77;54.33;101743.75;4981174;28;99464;-65
2023/06/25 02:40:33;;;;;;;10.75;8.38;;;;;;;24.80;54.31;101734.56;4989798;28;98812;-65
2023/06/25 02:43:00;;;;;;;12.82;7.85;;;;;;;24.83;52.42;101735.16;4988667;28;96810;-65
2023/06/25 02:45:26;;;;;;;11.57;7.68;;;;;;;25.05;52.38;101731.63;4988625;28;96960;-66
2023/06/25 02:47:52;;;;;;;11.00;7.15;;;;;;;25.19;51.52;101738.63;4989015;28;99031;-66
2023/06/25 02:50:20;;;;;;;11.70;7.55;;;;;;;25.15;52.44;101727.19;4982167;28;102023;-65
2023/06/25 02:52:46;;;;;;;12.02;7.97;;;;;;;25.21;51.97;101725.81;4990899;28;98583;-65
2023/06/25 02:55:13;;;;;;;11.40;7.78;;;;;;;25.07;51.29;101718.84;4989215;28;97288;-65
2023/06/25 02:57:39;;;;;;;11.27;7.20;;;;;;;25.09;51.41;101727.69;4988861;28;101822;-65
2023/06/25 03:00:07;;;;;;;12.00;7.43;;;;;;;25.42;51.04;101724.06;4989359;28;101075;-65
2023/06/25 03:02:33;;;;;;;10.07;7.78;;;;;;;25.33;51.34;101722.13;4991490;28;98827;-66
2023/06/25 03:04:59;;;;;;;10.55;7.60;;;;;;;25.20;51.91;101726.84;4989889;28;97133;-66
2023/06/25 03:07:27;;;;;;;15.35;7.78;;;;;;;25.13;51.91;101731.03;4989045;28;99204;-64
2023/06/25 03:09:53;;;;;;;10.70;7.22;;;;;;;24.88;52.94;101729.38;4985484;28;98793;-65
2023/06/25 03:12:20;;;;;;;9.98;7.35;;;;;;;25.18;52.36;101728.78;5000148;28;96767;-65
2023/06/25 03:14:46;;;;;;;12.93;7.28;;;;;;;25.12;53.36;101721.19;4988440;28;97101;-66
2023/06/25 03:17:12;;;;;;;9.77;6.95;;;;;;;25.20;53.26;101725.00;4989904;28;97700;-64
2023/06/25 03:19:39;;;;;;;12.90;8.38;;;;;;;25.02;53.45;101715.66;4989030;28;101006;-66
2023/06/25 03:22:06;;;;;;;11.73;8.02;;;;;;;25.01;53.45;101720.19;4999028;28;96858;-64
2023/06/25 03:24:33;;;;;;;12.13;7.03;;;;;;;25.18;53.02;101718.84;4993246;28;98036;-64
2023/06/25 03:27:00;;;;;;;12.98;8.45;;;;;;;25.20;52.00;101718.72;4992388;28;99402;-67
2023/06/25 03:29:27;;;;;;;10.10;7.25;;;;;;;25.17;52.68;101711.69;4990491;28;98914;-68
2023/06/25 03:31:53;;;;;;;13.07;8.45;;;;;;;25.14;51.85;101711.94;4991785;28;98101;-65
2023/06/25 03:34:20;;;;;;;10.32;7.53;;;;;;;25.02;52.30;101713.81;4992656;28;97398;-66
2023/06/25 03:36:47;;;;;;;13.18;8.10;;;;;;;25.05;52.68;101706.44;4990797;28;97619;-64
2023/06/25 03:39:13;;;;;;;12.82;8.15;;;;;;;25.26;51.87;101712.81;4989481;28;99213;-63
2023/06/25 03:41:41;;;;;;;10.35;7.53;;;;;;;25.16;52.65;101712.69;4987733;28;96688;-65
2023/06/25 03:44:07;;;;;;;10.05;7.50;;;;;;;24.73;54.37;101720.66;4986398;28;97989;-63
2023/06/25 03:46:33;;;;;;;11.95;7.18;;;;;;;24.90;54.52;101712.09;4991508;28;99026;-64
2023/06/25 03:49:00;;;;;;;12.38;8.02;;;;;;;24.83;54.83;101716.22;4991160;28;97552;-64
2023/06/25 03:51:26;;;;;;;10.65;7.47;;;;;;;24.92;55.67;101707.44;4993525;28;97007;-64
2023/06/25 03:53:52;;;;;;;8.85;7.65;;;;;;;24.93;55.35;101711.88;4992192;28;97288;-65
2023/06/25 03:56:18;;;;;;;9.43;7.75;;;;;;;25.12;55.06;101707.66;4993723;28;99051;-64
2023/06/25 03:58:46;;;;;;;9.82;7.63;;;;;;;25.15;52.31;101707.38;4992314;28;97445;-66
2023/06/25 04:01:13;;;;;;;16.27;8.10;;;;;;;25.11;53.20;101711.34;4997237;28;97676;-64
2023/06/25 04:03:39;;;;;;;10.63;7.43;;;;;;;25.16;52.16;101711.81;4996687;28;98101;-65
2023/06/25 04:06:05;;;;;;;10.80;6.82;;;;;;;25.20;52.41;101705.19;4986473;28;99213;-67
2023/06/25 04:08:32;;;;;;;18.23;7.30;;;;;;;25.14;51.31;101708.41;4989942;28;99050;-67
2023/06/25 04:10:58;;;;;;;9.45;6.90;;;;;;;25.24;51.13;101703.94;4989536;28;96922;-65
2023/06/25 04:13:24;;;;;;;8.57;6.43;;;;;;;25.31;50.67;101714.16;4992525;28;96948;-66
2023/06/25 04:15:52;;;;;;;10.93;6.95;;;;;;;25.31;50.02;101708.72;4991768;28;98353;-66
2023/06/25 04:18:18;;;;;;;8.27;6.65;;;;;;;25.36;50.11;101713.75;4990600;28;98579;-65
2023/06/25 04:20:44;;;;;;;9.77;6.70;;;;;;;25.29;50.88;101710.69;4991570;28;96893;-65
2023/06/25 04:23:11;;;;;;;9.50;6.90;;;;;;;25.13;51.67;101712.94;4988361;28;98738;-64
2023/06/25 04:25:37;;;;;;;9.07;6.75;;;;;;;25.18;52.58;101716.13;4990061;28;98941;-65
2023/06/25 04:28:04;;;;;;;10.60;6.75;;;;;;;25.37;51.52;101712.78;4993825;28;98970;-67
2023/06/25 04:30:30;;;;;;;9.77;6.18;;;;;;;25.53;51.56;101713.25;4991967;28;98479;-65
2023/06/25 04:32:58;;;;;;;9.55;6.90;;;;;;;25.44;49.80;101716.69;4991728;28;97216;-65
2023/06/25 04:35:24;;;;;;;9.68;6.88;;;;;;;25.16;50.41;101714.53;4992334;28;100561;-64
2023/06/25 04:37:50;;;;;;;7.32;6.18;;;;;;;25.51;48.98;101712.50;4992504;28;98893;-65
2023/06/25 04:40:17;;;;;;;7.28;5.90;;;;;;;25.66;48.75;101713.97;4995537;28;98331;-64
2023/06/25 04:42:43;;;;;;;11.00;6.75;;;;;;;25.63;48.30;101706.09;4995675;28;98532;-66
2023/06/25 04:45:10;;;;;;;8.32;6.53;;;;;;;25.61;48.63;101707.19;4992572;28;99002;-65
2023/06/25 04:47:36;;;;;;;8.77;6.43;;;;;;;25.83;48.07;101709.81;4993897;28;101516;-65
2023/06/25 04:50:04;;;;;;;8.02;6.40;;;;;;;25.69;48.60;101704.72;4991191;28;98823;-65
2023/06/25 04:52:31;;;;;;;8.43;6.47;;;;;;;25.58;48.47;101705.63;4990976;28;97541;-65
2023/06/25 04:54:57;;;;;;;11.25;7.10;;;;;;;25.72;48.33;101707.16;4989285;28;98730;-66
2023/06/25 04:57:23;;;;;;;9.23;6.40;;;;;;;25.69;48.12;101715.53;4990233;28;99045;-65
2023/06/25 04:59:50;;;;;;;8.07;6.35;;;;;;;25.78;48.58;101715.63;4990135;28;98662;-67
2023/06/25 05:02:16;;;;;;;9.02;5.75;;;;;;;25.96;48.09;101715.06;4991569;28;96937;-67
2023/06/25 05:04:43;;;;;;;9.77;6.40;;;;;;;26.07;48.52;101713.16;4988006;28;99472;-67
2023/06/25 05:07:11;;;;;;;8.60;6.32;;;;;;;25.93;48.11;101716.16;4999602;28;97438;-64
2023/06/25 05:09:38;;;;;;;12.65;6.82;;;;;;;25.90;48.53;101711.03;4988770;28;97541;-66
2023/06/25 05:12:05;;;;;;;8.50;6.20;;;;;;;26.22;47.75;101707.41;4989687;28;98276;-67
2023/06/25 05:14:32;;;;;;;9.68;6.18;;;;;;;26.28;47.45;101705.06;4993649;28;98879;-67
2023/06/25 05:16:59;;;;;;;7.75;6.30;;;;;;;26.31;47.24;101710.22;4992880;28;98885;-67
2023/06/25 05:19:26;;;;;;;9.68;7.13;;;;;;;26.39;46.93;101704.97;4988903;28;98770;-66
2023/06/25 05:21:52;;;;;;;8.80;6.55;;;;;;;26.26;47.01;101708.88;4988032;28;98393;-66
2023/06/25 05:24:20;;;;;;;7.53;6.35;;;;;;;26.46;46.38;101706.16;4988482;28;99313;-64
2023/06/25 05:26:46;;;;;;;8.20;6.57;;;;;;;26.16;46.78;101703.38;4988964;28;98947;-65
2023/06/25 05:29:12;;;;;;;8.63;6.32;;;;;;;26.29;46.97;101708.63;4991178;28;96864;-65
2023/06/25 05:31:39;;;;;;;7.80;6.53;;;;;;;26.36;46.59;101705.25;4990198;28;97243;-65
2023/06/25 05:34:05;;;;;;;10.18;6.38;;;;;;;26.48;46.75;101706.03;4986764;28;99082;-65
2023/06/25 05:36:31;;;;;;;11.00;7.25;;;;;;;26.49;46.24;101705.06;4989065;28;99223;-65
2023/06/25 05:38:57;;;;;;;7.45;6.50;;;;;;;26.63;45.94;101707.41;4992384;28;96794;-65
2023/06/25 05:41:25;;;;;;;8.50;6.20;;;;;;;26.54;46.40;101709.06;4989831;28;96870;-66
2023/06/25 05:43:51;;;;;;;7.88;6.75;;;;;;;26.61;45.77;101703.13;4982396;28;98965;-66
2023/06/25 05:46:18;;;;;;;7.32;6.03;;;;;;;26.69;45.82;101701.44;4988626;28;97845;-66
2023/06/25 05:48:44;;;;;;;7.70;6.30;;;;;;;26.64;46.05;101701.00;4986200;28;97687;-66
2023/06/25 05:51:10;;;;;;;9.07;6.88;;;;;;;26.73;45.80;101697.47;4990577;28;98473;-66
2023/06/25 05:53:41;;;;;;;7.00;6.30;;;;;;;26.89;45.90;101691.56;4988271;28;99138;-66
2023/06/25 05:56:07;;;;;;;6.45;5.68;;;;;;;26.96;45.37;101698.19;4991270;28;99032;-66
2023/06/25 05:58:36;;;;;;;8.38;5.93;;;;;;;26.98;45.60;101690.75;4990252;28;96878;-66
2023/06/25 06:01:03;;;;;;;11.07;6.72;;;;;;;26.92;45.82;101696.72;4988756;28;97805;-66
2023/06/25 06:03:29;;;;;;;9.02;5.90;;;;;;;26.75;45.66;101695.47;4987203;28;98939;-67
2023/06/25 06:05:57;;;;;;;7.13;5.55;;;;;;;26.91;45.73;101695.03;4989004;28;100571;-66
2023/06/25 06:08:23;;;;;;;6.75;6.03;;;;;;;26.95;45.46;101700.03;4989500;28;97055;-66
2023/06/25 06:10:50;;;;;;;8.27;6.20;;;;;;;26.90;45.23;101688.75;4988683;28;98668;-65
2023/06/25 06:13:16;;;;;;;8.48;6.82;;;;;;;26.93;45.01;101682.16;4990226;28;99186;-65
2023/06/25 06:15:44;;;;;;;6.47;5.88;;;;;;;27.15;45.00;101690.09;4989929;28;98985;-65
2023/06/25 06:18:10;;;;;;;7.03;5.90;;;;;;;27.18;44.60;101695.22;4989650;28;97228;-66
2023/06/25 06:20:36;;;;;;;8.48;5.55;;;;;;;27.43;44.38;101690.31;4984546;28;97436;-65
2023/06/25 06:23:03;;;;;;;8.18;6.05;;;;;;;27.38;44.14;101694.28;4988440;28;99131;-66
2023/06/25 06:25:29;;;;;;;7.75;6.38;;;;;;;27.62;43.54;101701.22;4987526;28;102412;-65
2023/06/25 06:27:56;;;;;;;6.95;5.63;;;;;;;27.56;44.09;101696.34;4993896;28;96836;-65
2023/06/25 06:30:23;;;;;;;7.75;6.18;;;;;;;27.81;42.97;101694.94;4986548;28;97584;-65
2023/06/25 06:32:51;;;;;;;6.82;6.10;;;;;;;28.11;42.85;101692.91;4987748;28;97825;-65
2023/06/25 06:35:17;;;;;;;7.63;6.25;;;;;;;28.12;41.50;101691.03;4987790;28;98775;-65
2023/06/25 06:37:43;;;;;;;8.57;5.88;;;;;;;27.93;41.92;101686.47;4988229;28;98417;-66
2023/06/25 06:40:10;;;;;;;10.00;5.88;;;;;;;27.97;42.00;101690.63;4984480;28;97374;-66
2023/06/25 06:42:36;;;;;;;7.05;5.22;;;;;;;28.37;41.34;101690.44;4990393;28;101116;-67
2023/06/25 06:45:03;;;;;;;7.03;5.88;;;;;;;28.63;40.82;101697.94;4990370;28;98950;-67
2023/06/25 06:47:30;;;;;;;8.38;5.80;;;;;;;28.96;39.59;101685.66;4994443;28;96928;-66
2023/06/25 06:49:58;;;;;;;6.60;5.32;;;;;;;29.21;39.33;101691.25;4986334;28;102158;-66
2023/06/25 06:52:26;;;;;;;6.38;5.47;;;;;;;29.18;39.03;101693.44;4989607;28;101641;-66
2023/06/25 06:54:52;;;;;;;8.43;6.47;;;;;;;29.21;38.49;101693.16;4987149;28;98617;-66
2023/06/25 06:57:19;;;;;;;6.68;5.60;;;;;;;29.45;37.67;101679.81;4988128;28;100136;-66
2023/06/25 06:59:45;;;;;;;7.15;5.40;;;;;;;29.52;37.80;101690.97;4990786;28;98454;-67
2023/06/25 07:02:12;;;;;;;8.25;6.40;;;;;;;29.77;37.31;101690.19;4986258;28;99365;-67
2023/06/25 07:04:38;;;;;;;7.82;6.10;;;;;;;29.70;36.83;101694.53;4990264;28;98954;-66
2023/06/25 07:07:06;;;;;;;8.60;5.95;;;;;;;29.99;36.27;101688.88;4993279;28;98538;-65
2023/06/25 07:09:33;;;;;;;7.03;6.32;;;;;;;29.96;36.14;101689.19;4992379;28;96766;-66
2023/06/25 07:11:59;;;;;;;8.00;6.47;;;;;;;30.21;36.53;101692.94;4991397;28;97740;-66
2023/06/25 07:14:25;;;;;;;5.78;5.18;;;;;;;29.94;35.98;101692.06;4988993;28;98845;-66
2023/06/25 07:16:52;;;;;;;8.07;5.85;;;;;;;30.61;35.69;101689.66;4987175;28;98612;-65
2023/06/25 07:19:18;;;;;;;7.47;5.65;;;;;;;31.04;34.53;101681.38;4990325;28;98366;-65
2023/06/25 07:21:44;;;;;;;6.35;5.35;;;;;;;30.78;34.83;101680.56;4992261;28;98950;-64
2023/06/25 07:24:12;;;;;;;9.90;5.93;;;;;;;30.90;34.22;101679.25;4991494;28;100584;-65
2023/06/25 07:26:39;;;;;;;6.38;5.18;;;;;;;30.86;34.71;101675.13;4993653;28;97089;-65
2023/06/25 07:29:05;;;;;;;8.50;5.65;;;;;;;30.68;34.75;101668.91;4992480;28;97256;-66
2023/06/25 07:31:31;;;;;;;6.53;5.35;;;;;;;30.63;34.70;101674.84;4990825;28;97711;-66
2023/06/25 07:33:58;;;;;;;7.28;4.95;;;;;;;30.92;33.72;101668.19;4990235;28;101848;-66
2023/06/25 07:36:24;;;;;;;7.03;5.35;;;;;;;30.81;33.37;101669.31;4988343;28;97012;-66
2023/06/25 07:38:50;;;;;;;13.07;5.97;;;;;;;31.00;33.25;101677.22;4987033;28;97539;-66
2023/06/25 07:41:18;;;;;;;5.93;5.15;;;;;;;30.91;34.21;101672.78;4991127;28;99384;-67
2023/06/25 07:43:44;;;;;;;6.45;5.63;;;;;;;30.44;34.67;101678.66;4988069;28;98685;-66
2023/06/25 07:46:10;;;;;;;5.72;5.18;;;;;;;30.67;35.02;101678.09;4990221;28;97600;-66
2023/06/25 07:48:37;;;;;;;6.25;5.22;;;;;;;30.76;34.85;101679.88;4987084;28;99024;-65
2023/06/25 07:51:03;;;;;;;6.38;5.72;;;;;;;30.78;34.39;101670.50;4986504;28;98926;-66
2023/06/25 07:53:30;;;;;;;6.22;5.70;;;;;;;30.64;34.22;101676.56;4986429;28;98800;-66
2023/06/25 07:55:56;;;;;;;9.05;5.88;;;;;;;30.53;34.10;101679.56;4990466;28;97680;-65
2023/06/25 07:58:24;;;;;;;9.02;6.30;;;;;;;31.00;33.90;101679.09;4989014;28;96957;-66
2023/06/25 08:00:50;;;;;;;6.53;5.68;;;;;;;30.73;33.60;101682.91;4984211;28;99238;-66
2023/06/25 08:03:16;;;;;;;5.50;5.00;;;;;;;30.85;33.25;101670.72;4983413;28;99036;-66
2023/06/25 08:05:43;;;;;;;6.28;5.60;;;;;;;30.70;33.80;101678.66;4988504;28;98391;-65
2023/06/25 08:08:09;;;;;;;6.22;5.63;;;;;;;30.57;33.75;101678.25;4985581;28;97847;-66
2023/06/25 08:10:36;;;;;;;8.02;5.90;;;;;;;30.86;33.46;101669.66;4981819;28;99032;-66
2023/06/25 08:13:02;;;;;;;7.43;6.05;;;;;;;30.92;33.78;101669.00;4983748;28;99030;-66
2023/06/25 08:15:30;;;;;;;6.88;5.25;;;;;;;30.72;34.26;101673.03;4984417;28;97212;-66
2023/06/25 08:17:56;;;;;;;5.47;4.97;;;;;;;31.20;33.36;101669.66;4984094;28;97648;-66
2023/06/25 08:20:22;;;;;;;8.15;5.28;;;;;;;31.21;33.21;101668.63;4983440;28;98998;-67
2023/06/25 08:22:49;;;;;;;7.38;5.10;;;;;;;31.57;33.17;101677.44;4985934;28;98803;-67
2023/06/25 08:25:26;;;;;;;5.45;4.95;;;;;;;31.49;32.55;101667.34;4990910;28;98755;-66
2023/06/25 08:27:53;;;;;;;5.45;4.95;;;;;;;31.06;33.43;101673.88;4990011;28;98787;-67
2023/06/25 08:30:19;;;;;;;5.35;4.57;;;;;;;30.95;33.47;101660.50;4990316;28;99264;-67
2023/06/25 08:32:47;;;;;;;8.27;5.13;;;;;;;31.28;33.44;101670.53;4987739;28;98837;-65
2023/06/25 08:35:14;;;;;;;9.40;5.85;;;;;;;30.88;33.60;101660.31;4985175;28;97374;-66
2023/06/25 08:37:40;;;;;;;7.40;5.50;;;;;;;31.14;32.91;101665.72;4984160;28;97332;-65
2023/06/25 08:40:11;;;;;;;5.78;5.28;;;;;;;31.14;33.25;101668.44;4983069;28;98030;-66
2023/06/25 08:42:37;;;;;;;8.70;5.45;;;;;;;31.21;33.68;101669.50;4986815;28;99153;-65
2023/06/25 08:45:04;;;;;;;7.30;5.57;;;;;;;31.06;34.20;101667.56;4982674;28;99129;-66
2023/06/25 08:47:37;;;;;;;5.68;5.10;;;;;;;31.02;33.97;101667.03;4995886;28;97005;-66
2023/06/25 08:50:07;;;;;;;6.40;5.18;;;;;;;31.72;32.66;101669.44;4991066;28;99071;-67
2023/06/25 08:52:33;;;;;;;5.63;4.97;;;;;;;31.91;32.12;101669.09;4988971;28;98954;-67
2023/06/25 08:55:00;;;;;;;7.80;5.25;;;;;;;31.59;32.88;101665.34;4991157;28;97693;-66
2023/06/25 08:57:26;;;;;;;5.75;4.90;;;;;;;32.06;32.49;101672.84;4991255;28;96892;-66
2023/06/25 08:59:53;;;;;;;5.88;5.03;;;;;;;32.09;32.94;101664.31;4993521;28;99192;-66
2023/06/25 09:02:19;;;;;;;6.72;5.65;;;;;;;32.04;32.13;101670.28;4993059;28;98857;-67
2023/06/25 09:04:46;;;;;;;7.25;5.18;;;;;;;31.92;32.18;101668.06;4993424;28;97029;-65
2023/06/25 09:07:16;;;;;;;7.00;5.82;;;;;;;32.15;32.43;101666.41;4995897;28;98889;-67
2023/06/25 09:09:42;;;;;;;9.07;5.28;;;;;;;32.24;32.01;101665.34;4997159;28;99144;-66
2023/06/25 09:12:10;;;;;;;6.63;5.80;;;;;;;32.62;31.30;101657.41;4986893;28;97564;-65
2023/06/25 09:14:36;;;;;;;8.60;5.78;;;;;;;32.32;31.82;101661.75;4990488;28;96990;-66
2023/06/25 09:17:04;;;;;;;8.35;6.90;;;;;;;32.56;31.39;101655.38;4994562;28;97816;-67
2023/06/25 09:19:30;;;;;;;19.85;5.97;;;;;;;32.63;31.21;101657.22;4986352;28;99395;-66
2023/06/25 09:21:56;;;;;;;5.97;5.05;;;;;;;32.55;32.00;101657.25;4992493;28;99797;-66
2023/06/25 09:24:24;;;;;;;8.40;5.50;;;;;;;32.67;31.95;101650.41;4990349;28;97203;-65
2023/06/25 09:26:51;;;;;;;11.85;5.75;;;;;;;32.42;31.75;101654.22;5000190;28;96948;-65
2023/06/25 09:29:19;;;;;;;6.50;5.32;;;;;;;32.18;32.60;101646.03;4991355;28;98971;-65
2023/06/25 09:31:47;;;;;;;5.68;5.13;;;;;;;32.04;33.24;101651.16;4993010;28;98893;-66
2023/06/25 09:34:15;;;;;;;9.07;5.47;;;;;;;32.26;32.59;101641.41;4986268;28;96932;-66
2023/06/25 09:36:42;;;;;;;6.30;5.22;;;;;;;32.47;32.21;101649.06;4989846;28;97267;-65
2023/06/25 09:39:10;;;;;;;7.90;4.90;;;;;;;32.56;32.63;101650.72;4988936;28;98871;-65
2023/06/25 09:41:40;;;;;;;6.18;4.70;;;;;;;32.31;31.93;101641.75;4988775;28;98966;-66
2023/06/25 09:44:07;;;;;;;4.70;4.28;;;;;;;32.35;31.89;101639.53;4998837;28;96852;-66
2023/06/25 09:46:35;;;;;;;4.65;3.80;;;;;;;32.44;31.88;101644.78;4997994;28;98736;-65
2023/06/25 09:49:02;;;;;;;4.72;4.13;;;;;;;31.90;32.45;101634.63;4998322;28;101487;-65
2023/06/25 09:51:35;;;;;;;6.07;4.70;;;;;;;32.06;32.72;101629.97;4991424;28;101423;-66
2023/06/25 09:54:05;;;;;;;7.20;4.72;;;;;;;31.85;32.79;101626.06;4992285;28;101911;-65
2023/06/25 09:56:34;;;;;;;5.95;4.72;;;;;;;32.60;32.35;101630.22;4992415;28;97030;-66
2023/06/25 09:59:03;;;;;;;5.93;4.80;;;;;;;32.10;32.56;101624.19;4990232;28;99541;-66
2023/06/25 10:01:30;;;;;;;5.40;4.55;;;;;;;32.35;32.68;101626.72;4988430;28;98881;-66
2023/06/25 10:03:56;;;;;;;6.00;4.85;;;;;;;32.45;32.64;101624.63;4989100;28;97255;-66
2023/06/25 10:06:23;;;;;;;5.78;4.93;;;;;;;32.12;32.65;101613.91;4991962;28;96936;-66
2023/06/25 10:08:50;;;;;;;5.00;4.47;;;;;;;31.99;32.95;101611.69;4995580;28;99121;-65
2023/06/25 10:11:17;;;;;;;6.40;5.30;;;;;;;32.22;32.83;101606.41;4991645;28;97429;-67
2023/06/25 10:13:45;;;;;;;6.07;4.32;;;;;;;32.55;31.83;101602.53;4991170;28;96831;-65
2023/06/25 10:16:17;;;;;;;5.30;3.95;;;;;;;32.56;31.59;101596.00;4990540;28;97340;-66
2023/06/25 10:18:44;;;;;;;5.00;4.53;;;;;;;32.35;31.46;101604.84;4990436;28;98492;-66
2023/06/25 10:21:18;;;;;;;5.57;4.10;;;;;;;32.26;30.73;101600.41;4988891;28;99497;-66
2023/06/25 10:23:59;;;;;;;4.70;4.25;;;;;;;32.23;31.06;101597.19;4990414;28;96837;-66
2023/06/25 10:26:27;;;;;;;4.60;4.18;;;;;;;32.03;31.68;101592.03;4996661;28;96721;-68
2023/06/25 10:28:54;;;;;;;4.22;3.83;;;;;;;32.09;32.44;101589.66;5004858;28;99372;-66
2023/06/25 10:31:22;;;;;;;5.38;4.88;;;;;;;32.22;31.67;101595.47;4992923;28;98868;-66
2023/06/25 10:33:48;;;;;;;5.20;4.28;;;;;;;31.98;32.25;101588.97;4992647;28;96717;-65
2023/06/25 10:36:15;;;;;;;4.20;3.58;;;;;;;32.05;32.29;101579.06;4992479;28;97507;-65
2023/06/25 10:38:41;;;;;;;9.02;4.43;;;;;;;31.69;33.10;101585.09;4995290;28;97944;-66
2023/06/25 10:41:08;;;;;;;6.55;4.13;;;;;;;31.63;32.97;101584.75;4976599;28;99172;-66
2023/06/25 10:43:37;;;;;;;10.52;4.28;;;;;;;31.95;32.87;101581.13;4977069;28;100798;-66
2023/06/25 10:46:04;;;;;;;6.30;3.80;;;;;;;31.39;33.71;101589.31;4980089;28;99170;-66
2023/06/25 10:48:32;;;;;;;6.57;4.78;;;;;;;31.30;33.98;101587.63;4989614;28;102597;-66
2023/06/25 10:50:58;;;;;;;7.82;4.32;;;;;;;31.53;33.43;101583.19;4991117;28;99557;-66
2023/06/25 10:53:25;;;;;;;5.55;4.10;;;;;;;31.91;33.25;101584.38;5000347;28;96814;-66
2023/06/25 10:55:54;;;;;;;5.40;4.65;;;;;;;31.78;32.63;101582.16;4991656;28;97136;-67
2023/06/25 10:58:22;;;;;;;7.75;4.80;;;;;;;31.90;33.01;101579.97;4989019;28;99096;-66
2023/06/25 11:00:54;;;;;;;6.25;4.70;;;;;;;31.93;33.09;101568.66;4987771;28;97732;-66
2023/06/25 11:03:21;;;;;;;5.38;4.53;;;;;;;32.23;32.51;101569.84;4988400;28;97036;-67
2023/06/25 11:05:49;;;;;;;6.72;4.45;;;;;;;32.26;32.37;101572.19;4988667;28;98535;-67
2023/06/25 11:08:16;;;;;;;6.30;4.15;;;;;;;31.85;32.49;101564.06;4984611;28;97880;-67
2023/06/25 11:10:44;;;;;;;5.18;4.10;;;;;;;31.98;32.70;101567.09;4997105;28;98305;-66
2023/06/25 11:13:11;;;;;;;6.65;4.47;;;;;;;31.89;33.15;101561.84;4994079;28;96947;-65
2023/06/25 11:15:38;;;;;;;4.90;3.97;;;;;;;32.24;32.61;101560.56;4988412;28;100575;-66
2023/06/25 11:18:04;;;;;;;5.25;4.40;;;;;;;32.09;33.01;101565.91;4993531;28;98905;-66
2023/06/25 11:20:32;;;;;;;21.27;5.18;;;;;;;32.49;32.60;101562.22;4989919;28;101507;-65